createdAt,value
2017-09-06T00:02:08.134Z,96.80
2017-09-06T00:04:35.636Z,97.10
2017-09-06T00:07:03.140Z,97.30
2017-09-06T00:09:30.687Z,97.60
2017-09-06T00:11:58.191Z,97.80
2017-09-06T00:14:26.562Z,97.50
2017-09-06T00:16:54.077Z,97.70
2017-09-06T00:19:21.567Z,97.80
2017-09-06T00:21:49.105Z,97.60
2017-09-06T00:24:16.628Z,97.60
2017-09-06T00:26:44.169Z,97.70
2017-09-06T00:29:11.668Z,97.50
2017-09-06T00:31:39.186Z,97.70
2017-09-06T00:34:06.707Z,97.20
2017-09-06T00:36:34.211Z,97.10
2017-09-06T00:39:01.727Z,97.10
2017-09-06T00:41:29.240Z,97.20
2017-09-06T00:43:56.747Z,97.00
2017-09-06T00:46:24.271Z,97.20
2017-09-06T00:48:51.772Z,97.50
2017-09-06T00:51:19.282Z,97.50
2017-09-06T00:53:46.818Z,97.70
2017-09-06T00:56:14.444Z,97.60
2017-09-06T00:58:41.973Z,98.00
2017-09-06T01:01:09.477Z,98.30
2017-09-06T01:03:37.009Z,98.60
2017-09-06T01:06:04.540Z,98.80
2017-09-06T01:08:32.053Z,98.90
2017-09-06T01:10:59.552Z,99.20
2017-09-06T01:13:27.088Z,99.40
2017-09-06T01:15:54.608Z,99.70
2017-09-06T01:18:22.143Z,99.90
2017-09-06T01:20:49.662Z,99.90
2017-09-06T01:23:17.163Z,99.90
2017-09-06T01:25:44.699Z,99.90
2017-09-06T01:28:12.214Z,99.90
2017-09-06T01:30:39.735Z,99.90
2017-09-06T01:33:07.299Z,99.90
2017-09-06T01:35:34.813Z,99.90
2017-09-06T01:38:02.320Z,99.90
2017-09-06T01:40:30.734Z,99.90
2017-09-06T01:42:58.245Z,99.90
2017-09-06T01:45:26.554Z,99.90
2017-09-06T01:47:54.074Z,99.90
2017-09-06T01:50:21.575Z,99.90
2017-09-06T01:52:49.114Z,99.90
2017-09-06T01:55:16.634Z,99.90
2017-09-06T01:57:44.187Z,99.90
2017-09-06T02:00:11.802Z,99.90
2017-09-06T02:02:39.331Z,99.90
2017-09-06T02:05:06.920Z,99.90
2017-09-06T02:07:34.439Z,99.90
2017-09-06T02:10:02.000Z,99.90
2017-09-06T02:12:29.500Z,99.90
2017-09-06T02:14:57.012Z,99.90
2017-09-06T02:17:25.299Z,99.90
2017-09-06T02:19:52.804Z,99.90
2017-09-06T02:22:20.329Z,99.90
2017-09-06T02:24:47.850Z,99.90
2017-09-06T02:27:15.394Z,99.90
2017-09-06T02:29:42.910Z,99.90
2017-09-06T02:32:10.420Z,99.90
2017-09-06T02:34:37.966Z,99.90
2017-09-06T02:37:05.485Z,99.90
2017-09-06T02:39:33.002Z,99.90
2017-09-06T02:42:00.544Z,99.90
2017-09-06T02:44:28.054Z,99.90
2017-09-06T02:46:55.583Z,99.90
2017-09-06T02:49:23.093Z,99.90
2017-09-06T02:51:50.607Z,99.90
2017-09-06T02:54:18.133Z,99.90
2017-09-06T02:56:45.662Z,99.90
2017-09-06T02:59:13.175Z,99.90
2017-09-06T03:01:40.714Z,99.90
2017-09-06T03:04:08.227Z,99.90
2017-09-06T03:06:35.756Z,99.90
2017-09-06T03:09:03.256Z,99.90
2017-09-06T03:11:30.756Z,99.90
2017-09-06T03:13:58.302Z,99.90
2017-09-06T03:16:25.792Z,99.90
2017-09-06T03:18:53.306Z,99.90
2017-09-06T03:21:20.837Z,99.90
2017-09-06T03:23:48.338Z,99.90
2017-09-06T03:26:15.845Z,99.90
2017-09-06T03:28:43.364Z,99.90
2017-09-06T03:31:10.869Z,99.90
2017-09-06T03:33:38.399Z,99.90
2017-09-06T03:36:05.996Z,99.90
2017-09-06T03:38:33.496Z,99.90
2017-09-06T03:41:01.030Z,99.90
2017-09-06T03:43:28.537Z,99.90
2017-09-06T03:45:56.039Z,99.90
2017-09-06T03:48:23.585Z,99.90
2017-09-06T03:50:51.862Z,99.90
2017-09-06T03:53:19.359Z,99.90
2017-09-06T03:55:46.889Z,99.90
2017-09-06T03:58:14.418Z,99.90
2017-09-06T04:00:41.939Z,99.90
2017-09-06T04:03:09.459Z,99.90
2017-09-06T04:05:37.002Z,99.90
2017-09-06T04:08:04.518Z,99.90
2017-09-06T04:10:32.026Z,99.90
2017-09-06T04:12:59.567Z,99.90
2017-09-06T04:15:27.059Z,99.90
2017-09-06T04:17:54.598Z,99.90
2017-09-06T04:20:22.091Z,99.90
2017-09-06T04:22:49.603Z,99.90
2017-09-06T04:25:17.138Z,99.90
2017-09-06T04:27:44.665Z,99.90
2017-09-06T04:30:12.205Z,99.90
2017-09-06T04:32:39.700Z,99.90
2017-09-06T04:35:07.215Z,99.90
2017-09-06T04:37:34.726Z,99.90
2017-09-06T04:40:02.265Z,99.90
2017-09-06T04:42:29.782Z,99.90
2017-09-06T04:44:57.348Z,99.90
2017-09-06T04:47:24.871Z,99.90
2017-09-06T04:49:52.372Z,99.90
2017-09-06T04:52:19.881Z,99.90
2017-09-06T04:54:47.408Z,99.90
2017-09-06T04:57:14.917Z,99.90
2017-09-06T04:59:42.430Z,99.90
2017-09-06T05:02:10.055Z,99.90
2017-09-06T05:04:37.547Z,99.90
2017-09-06T05:07:05.059Z,99.90
2017-09-06T05:09:32.574Z,99.90
2017-09-06T05:12:00.108Z,99.90
2017-09-06T05:14:27.645Z,99.90
2017-09-06T05:16:55.184Z,99.90
2017-09-06T05:19:22.685Z,99.90
2017-09-06T05:21:50.223Z,99.70
2017-09-06T05:24:17.754Z,99.90
2017-09-06T05:26:45.339Z,99.60
2017-09-06T05:29:12.856Z,99.60
2017-09-06T05:31:40.464Z,99.30
2017-09-06T05:34:08.002Z,99.30
2017-09-06T05:36:35.499Z,99.30
2017-09-06T05:39:03.000Z,99.30
2017-09-06T05:41:31.301Z,99.60
2017-09-06T05:43:58.799Z,99.60
2017-09-06T05:46:26.337Z,99.40
2017-09-06T05:48:53.854Z,99.30
2017-09-06T05:51:21.351Z,99.10
2017-09-06T05:53:48.876Z,99.10
2017-09-06T05:56:16.376Z,99.10
2017-09-06T05:58:43.868Z,98.70
2017-09-06T06:01:11.419Z,98.50
2017-09-06T06:03:38.931Z,98.90
2017-09-06T06:06:06.490Z,98.90
2017-09-06T06:08:33.992Z,98.80
2017-09-06T06:11:01.507Z,98.30
2017-09-06T06:13:29.037Z,98.10
2017-09-06T06:15:56.549Z,98.70
2017-09-06T06:18:24.067Z,99.80
2017-09-06T06:20:51.571Z,99.90
2017-09-06T06:23:19.122Z,99.90
2017-09-06T06:25:46.638Z,99.90
2017-09-06T06:28:14.135Z,99.90
2017-09-06T06:30:41.665Z,99.90
2017-09-06T06:33:09.201Z,99.90
2017-09-06T06:35:36.739Z,99.90
2017-09-06T06:38:04.250Z,99.90
2017-09-06T06:40:31.770Z,99.60
2017-09-06T06:42:59.288Z,98.80
2017-09-06T06:45:26.799Z,98.90
2017-09-06T06:47:54.320Z,98.20
2017-09-06T06:50:21.835Z,98.50
2017-09-06T06:52:49.356Z,97.80
2017-09-06T06:55:16.872Z,99.00
2017-09-06T06:57:44.626Z,99.30
2017-09-06T07:00:12.142Z,99.60
2017-09-06T07:02:39.644Z,99.60
2017-09-06T07:05:07.190Z,99.80
2017-09-06T07:07:34.688Z,99.90
2017-09-06T07:10:02.202Z,99.70
2017-09-06T07:12:29.735Z,99.00
2017-09-06T07:14:57.245Z,98.60
2017-09-06T07:17:24.786Z,97.80
2017-09-06T07:19:52.279Z,97.10
2017-09-06T07:22:19.771Z,97.40
2017-09-06T07:24:47.466Z,98.10
2017-09-06T07:27:14.973Z,99.20
2017-09-06T07:29:42.482Z,99.90
2017-09-06T07:32:10.033Z,99.90
2017-09-06T07:34:37.546Z,99.90
2017-09-06T07:37:05.165Z,99.90
2017-09-06T07:39:32.697Z,99.90
2017-09-06T07:42:00.279Z,99.90
2017-09-06T07:44:27.826Z,99.90
2017-09-06T07:46:55.346Z,99.90
2017-09-06T07:49:22.861Z,99.90
2017-09-06T07:51:50.413Z,99.90
2017-09-06T07:54:17.939Z,99.90
2017-09-06T07:56:45.486Z,99.60
2017-09-06T07:59:13.002Z,99.10
2017-09-06T08:01:40.530Z,98.70
2017-09-06T08:04:08.090Z,97.30
2017-09-06T08:06:35.597Z,97.30
2017-09-06T08:09:03.146Z,94.70
2017-09-06T08:11:30.662Z,93.60
2017-09-06T08:13:58.189Z,91.00
2017-09-06T08:16:25.726Z,92.30
2017-09-06T08:18:53.238Z,93.30
2017-09-06T08:21:20.790Z,93.60
2017-09-06T08:23:48.310Z,94.40
2017-09-06T08:26:15.862Z,95.30
2017-09-06T08:28:43.377Z,96.60
2017-09-06T08:31:10.894Z,97.00
2017-09-06T08:33:38.435Z,96.90
2017-09-06T08:36:05.954Z,99.00
2017-09-06T08:38:33.478Z,99.90
2017-09-06T08:41:01.015Z,99.90
2017-09-06T08:43:28.555Z,99.90
2017-09-06T08:45:56.098Z,99.90
2017-09-06T08:48:23.613Z,99.90
2017-09-06T08:50:51.130Z,99.90
2017-09-06T08:53:18.682Z,99.90
2017-09-06T08:55:46.199Z,99.90
2017-09-06T08:58:13.710Z,99.90
2017-09-06T09:00:41.250Z,99.90
2017-09-06T09:03:08.765Z,99.90
2017-09-06T09:05:36.284Z,99.90
2017-09-06T09:08:03.829Z,99.90
2017-09-06T09:10:31.351Z,99.90
2017-09-06T09:12:58.868Z,99.90
2017-09-06T09:15:26.402Z,99.90
2017-09-06T09:17:53.910Z,99.90
2017-09-06T09:20:21.446Z,99.90
2017-09-06T09:22:48.959Z,99.90
2017-09-06T09:25:16.489Z,99.90
2017-09-06T09:27:43.998Z,99.90
2017-09-06T09:30:11.552Z,99.90
2017-09-06T09:32:39.062Z,99.90
2017-09-06T09:35:06.578Z,99.90
2017-09-06T09:37:34.115Z,99.90
2017-09-06T09:40:01.634Z,99.90
2017-09-06T09:42:29.177Z,99.90
2017-09-06T09:44:56.686Z,99.90
2017-09-06T09:47:24.268Z,99.90
2017-09-06T09:49:51.822Z,99.80
2017-09-06T09:52:19.339Z,98.90
2017-09-06T09:54:46.902Z,99.40
2017-09-06T09:57:14.418Z,97.70
2017-09-06T09:59:41.957Z,98.40
2017-09-06T10:02:09.494Z,98.10
2017-09-06T10:04:37.074Z,98.40
2017-09-06T10:07:04.614Z,97.60
2017-09-06T10:09:32.123Z,97.20
2017-09-06T10:11:59.635Z,96.70
2017-09-06T10:14:27.177Z,96.30
2017-09-06T10:16:54.767Z,96.50
2017-09-06T10:19:22.318Z,95.90
2017-09-06T10:21:49.886Z,95.70
2017-09-06T10:24:17.430Z,95.20
2017-09-06T10:26:44.951Z,94.50
2017-09-06T10:29:12.465Z,94.90
2017-09-06T10:31:40.009Z,94.70
2017-09-06T10:34:07.530Z,95.90
2017-09-06T10:36:35.041Z,96.80
2017-09-06T10:39:02.698Z,96.80
2017-09-06T10:41:30.219Z,97.00
2017-09-06T10:43:57.739Z,97.00
2017-09-06T10:46:25.274Z,97.20
2017-09-06T10:48:52.780Z,98.00
2017-09-06T10:51:20.389Z,97.90
2017-09-06T10:53:47.911Z,97.80
2017-09-06T10:56:16.179Z,97.90
2017-09-06T10:58:43.707Z,97.90
2017-09-06T11:01:11.208Z,97.80
2017-09-06T11:03:38.712Z,97.40
2017-09-06T11:06:06.262Z,97.50
2017-09-06T11:08:33.776Z,97.30
2017-09-06T11:11:01.302Z,97.20
2017-09-06T11:13:28.950Z,97.60
2017-09-06T11:15:56.448Z,97.80
2017-09-06T11:18:23.966Z,97.10
2017-09-06T11:20:51.515Z,96.80
2017-09-06T11:23:19.008Z,96.60
2017-09-06T11:25:46.518Z,95.60
2017-09-06T11:28:14.053Z,95.70
2017-09-06T11:30:41.569Z,94.90
2017-09-06T11:33:09.205Z,93.80
2017-09-06T11:35:36.722Z,93.00
2017-09-06T11:38:04.323Z,91.60
2017-09-06T11:40:31.843Z,90.10
2017-09-06T11:42:59.348Z,81.70
2017-09-06T11:45:26.876Z,67.20
2017-09-06T11:47:54.397Z,62.70
2017-09-06T11:50:21.918Z,62.10
2017-09-06T11:52:49.453Z,56.40
2017-09-06T11:55:16.975Z,48.30
2017-09-06T11:57:44.501Z,42.10
2017-09-06T12:00:12.019Z,40.80
2017-09-06T12:02:39.525Z,40.30
2017-09-06T12:05:07.064Z,39.20
2017-09-06T12:07:34.591Z,42.20
2017-09-06T12:10:02.088Z,47.50
2017-09-06T12:12:29.611Z,53.50
2017-09-06T12:14:57.302Z,57.00
2017-09-06T12:17:24.818Z,59.60
2017-09-06T12:19:52.331Z,58.60
2017-09-06T12:22:19.875Z,49.10
2017-09-06T12:24:47.414Z,42.50
2017-09-06T12:27:14.947Z,37.80
2017-09-06T12:29:42.486Z,36.20
2017-09-06T12:32:10.007Z,41.20
2017-09-06T12:34:37.519Z,40.50
2017-09-06T12:37:05.042Z,40.90
2017-09-06T12:39:32.582Z,41.40
2017-09-06T12:42:00.083Z,35.70
2017-09-06T12:44:27.579Z,33.60
2017-09-06T12:46:55.104Z,33.30
2017-09-06T12:49:22.604Z,33.50
2017-09-06T12:51:50.130Z,37.60
2017-09-06T12:54:17.624Z,37.00
2017-09-06T12:56:45.152Z,36.90
2017-09-06T12:59:12.666Z,34.60
2017-09-06T13:01:40.313Z,36.40
2017-09-06T13:04:07.822Z,42.20
2017-09-06T13:06:35.324Z,41.50
2017-09-06T13:09:02.875Z,40.10
2017-09-06T13:11:30.374Z,44.60
2017-09-06T13:13:57.901Z,46.90
2017-09-06T13:16:25.428Z,49.80
2017-09-06T13:18:53.019Z,52.00
2017-09-06T13:21:20.571Z,53.00
2017-09-06T13:23:48.092Z,54.00
2017-09-06T13:26:15.593Z,54.30
2017-09-06T13:28:43.130Z,56.10
2017-09-06T13:31:10.637Z,57.10
2017-09-06T13:33:38.174Z,56.10
2017-09-06T13:36:05.682Z,53.20
2017-09-06T13:38:33.229Z,53.40
2017-09-06T13:41:00.732Z,52.40
2017-09-06T13:43:28.234Z,53.80
2017-09-06T13:45:55.760Z,52.60
2017-09-06T13:48:23.260Z,53.20
2017-09-06T13:50:50.793Z,51.70
2017-09-06T13:53:18.306Z,51.50
2017-09-06T13:55:45.843Z,50.10
2017-09-06T13:58:13.345Z,50.90
2017-09-06T14:00:40.876Z,44.30
2017-09-06T14:03:08.371Z,42.50
2017-09-06T14:05:35.872Z,45.00
2017-09-06T14:08:03.428Z,46.70
2017-09-06T14:10:30.940Z,50.10
2017-09-06T14:12:58.451Z,52.00
2017-09-06T14:15:26.011Z,53.50
2017-09-06T14:17:53.530Z,54.50
2017-09-06T14:20:21.059Z,56.00
2017-09-06T14:22:48.606Z,57.00
2017-09-06T14:25:16.115Z,57.00
2017-09-06T14:27:43.610Z,57.00
2017-09-06T14:30:11.133Z,56.10
2017-09-06T14:32:38.650Z,52.70
2017-09-06T14:35:06.180Z,49.20
2017-09-06T14:37:33.698Z,47.20
2017-09-06T14:40:01.210Z,48.90
2017-09-06T14:42:28.772Z,50.80
2017-09-06T14:44:56.324Z,52.40
2017-09-06T14:47:23.861Z,54.80
2017-09-06T14:49:51.384Z,57.10
2017-09-06T14:52:18.930Z,57.60
2017-09-06T14:54:46.427Z,57.50
2017-09-06T14:57:13.942Z,53.60
2017-09-06T14:59:41.473Z,53.90
2017-09-06T15:02:08.973Z,54.40
2017-09-06T15:04:36.519Z,53.50
2017-09-06T15:07:04.053Z,53.20
2017-09-06T15:09:31.557Z,52.80
2017-09-06T15:11:59.178Z,50.50
2017-09-06T15:14:26.699Z,52.40
2017-09-06T15:16:54.382Z,53.70
2017-09-06T15:19:21.880Z,54.90
2017-09-06T15:21:49.408Z,57.40
2017-09-06T15:24:16.922Z,59.30
2017-09-06T15:26:44.452Z,60.50
2017-09-06T15:29:11.969Z,62.20
2017-09-06T15:31:39.502Z,62.30
2017-09-06T15:34:08.029Z,62.90
2017-09-06T15:36:35.564Z,63.80
2017-09-06T15:39:03.080Z,63.80
2017-09-06T15:41:30.665Z,64.00
2017-09-06T15:43:58.191Z,63.10
2017-09-06T15:46:25.702Z,63.50
2017-09-06T15:48:53.199Z,57.80
2017-09-06T15:51:20.727Z,59.10
2017-09-06T15:53:48.224Z,58.00
2017-09-06T15:56:15.835Z,58.30
2017-09-06T15:58:43.355Z,57.70
2017-09-06T16:01:10.901Z,58.20
2017-09-06T16:03:38.413Z,57.20
2017-09-06T16:06:05.932Z,58.80
2017-09-06T16:08:33.456Z,60.00
2017-09-06T16:11:00.988Z,62.30
2017-09-06T16:13:28.534Z,65.00
2017-09-06T16:15:56.046Z,67.30
2017-09-06T16:18:23.562Z,68.50
2017-09-06T16:20:51.098Z,69.20
2017-09-06T16:23:18.603Z,70.10
2017-09-06T16:25:46.127Z,70.40
2017-09-06T16:28:14.392Z,76.10
2017-09-06T16:30:42.682Z,77.30
2017-09-06T16:33:10.587Z,77.10
2017-09-06T16:35:38.111Z,80.40
2017-09-06T16:38:05.631Z,85.60
2017-09-06T16:40:33.127Z,86.00
2017-09-06T16:43:00.656Z,86.50
2017-09-06T16:45:28.169Z,86.90
2017-09-06T16:47:56.437Z,85.90
2017-09-06T16:50:23.974Z,85.80
2017-09-06T16:52:51.471Z,85.10
2017-09-06T16:55:18.972Z,86.10
2017-09-06T16:57:46.516Z,85.80
2017-09-06T17:00:14.048Z,86.10
2017-09-06T17:02:41.581Z,87.20
2017-09-06T17:05:09.130Z,87.30
2017-09-06T17:07:36.643Z,89.10
2017-09-06T17:10:04.163Z,90.30
2017-09-06T17:12:31.689Z,90.80
2017-09-06T17:14:59.216Z,91.30
2017-09-06T17:17:26.741Z,91.60
2017-09-06T17:19:54.307Z,91.70
2017-09-06T17:22:22.614Z,92.00
2017-09-06T17:24:50.136Z,92.00
2017-09-06T17:27:17.636Z,91.90
2017-09-06T17:29:45.151Z,92.40
2017-09-06T17:32:13.454Z,93.70
2017-09-06T17:34:41.024Z,92.90
2017-09-06T17:37:08.547Z,94.90
2017-09-06T17:39:36.090Z,95.90
2017-09-06T17:42:03.596Z,96.00
2017-09-06T17:44:31.141Z,96.30
2017-09-06T17:46:58.667Z,98.00
2017-09-06T17:49:26.187Z,97.60
2017-09-06T17:51:53.724Z,98.40
2017-09-06T17:54:21.252Z,98.70
2017-09-06T17:56:48.760Z,99.10
2017-09-06T17:59:16.285Z,98.90
2017-09-06T18:01:43.806Z,99.20
2017-09-06T18:04:11.335Z,99.60
2017-09-06T18:06:38.839Z,99.60
2017-09-06T18:09:06.345Z,99.70
2017-09-06T18:11:33.914Z,99.90
2017-09-06T18:14:01.427Z,99.90
2017-09-06T18:16:28.965Z,99.30
2017-09-06T18:18:56.478Z,99.60
2017-09-06T18:21:23.999Z,99.20
2017-09-06T18:23:51.538Z,98.90
2017-09-06T18:26:19.056Z,98.20
2017-09-06T18:28:46.605Z,98.50
2017-09-06T18:31:14.134Z,98.60
2017-09-06T18:33:41.693Z,97.60
2017-09-06T18:36:09.354Z,97.80
2017-09-06T18:38:36.867Z,97.60
2017-09-06T18:41:05.136Z,98.10
2017-09-06T18:43:32.676Z,98.00
2017-09-06T18:46:00.175Z,97.60
2017-09-06T18:48:27.680Z,97.90
2017-09-06T18:50:55.234Z,97.90
2017-09-06T18:53:22.754Z,97.00
2017-09-06T18:55:50.270Z,97.00
2017-09-06T18:58:17.810Z,97.20
2017-09-06T19:00:45.316Z,96.90
2017-09-06T19:03:12.861Z,97.10
2017-09-06T19:05:40.368Z,97.30
2017-09-06T19:08:07.931Z,96.70
2017-09-06T19:10:35.435Z,96.30
2017-09-06T19:13:02.973Z,96.70
2017-09-06T19:15:30.481Z,96.90
2017-09-06T19:17:58.022Z,97.00
2017-09-06T19:20:25.546Z,97.10
2017-09-06T19:22:53.096Z,96.70
2017-09-06T19:25:20.621Z,97.20
2017-09-06T19:27:48.156Z,97.40
2017-09-06T19:30:16.424Z,97.60
2017-09-06T19:32:43.928Z,97.60
2017-09-06T19:35:11.467Z,97.40
2017-09-06T19:37:38.995Z,97.40
2017-09-06T19:40:06.542Z,97.10
2017-09-06T19:42:34.168Z,97.90
2017-09-06T19:45:01.686Z,97.40
2017-09-06T19:47:29.995Z,97.20
2017-09-06T19:49:57.522Z,97.20
2017-09-06T19:52:25.067Z,97.00
2017-09-06T19:54:52.580Z,97.50
2017-09-06T19:57:20.107Z,96.60
2017-09-06T19:59:47.641Z,96.20
2017-09-06T20:02:15.144Z,96.60
2017-09-06T20:04:42.652Z,96.60
2017-09-06T20:07:10.206Z,96.20
2017-09-06T20:09:37.715Z,96.30
2017-09-06T20:12:05.249Z,96.90
2017-09-06T20:14:32.772Z,97.00
2017-09-06T20:17:00.273Z,98.20
2017-09-06T20:19:27.845Z,98.60
2017-09-06T20:21:55.377Z,98.70
2017-09-06T20:24:22.934Z,98.80
2017-09-06T20:26:50.486Z,99.30
2017-09-06T20:29:17.996Z,99.80
2017-09-06T20:31:45.520Z,99.90
2017-09-06T20:34:13.831Z,99.90
2017-09-06T20:36:41.370Z,99.90
2017-09-06T20:39:08.894Z,99.90
2017-09-06T20:41:36.400Z,99.90
2017-09-06T20:44:03.920Z,99.90
2017-09-06T20:46:31.421Z,99.90
2017-09-06T20:48:58.948Z,99.60
2017-09-06T20:51:26.448Z,99.90
2017-09-06T20:53:53.966Z,99.90
2017-09-06T20:56:21.505Z,99.40
2017-09-06T20:58:49.040Z,99.60
2017-09-06T21:01:16.561Z,99.60
2017-09-06T21:03:44.101Z,99.80
2017-09-06T21:06:11.600Z,99.90
2017-09-06T21:08:39.252Z,99.80
2017-09-06T21:11:06.752Z,99.90
2017-09-06T21:13:34.370Z,99.90
2017-09-06T21:16:01.905Z,99.90
2017-09-06T21:18:29.408Z,99.90
2017-09-06T21:20:56.944Z,99.90
2017-09-06T21:23:24.452Z,99.90
2017-09-06T21:25:51.982Z,99.90
2017-09-06T21:28:19.521Z,99.90
2017-09-06T21:30:47.019Z,99.90
2017-09-06T21:33:14.574Z,99.90
2017-09-06T21:35:42.076Z,99.90
2017-09-06T21:38:09.584Z,99.90
2017-09-06T21:40:37.113Z,99.90
2017-09-06T21:43:05.403Z,99.90
2017-09-06T21:45:32.937Z,99.90
2017-09-06T21:48:00.463Z,99.90
2017-09-06T21:50:28.008Z,99.90
2017-09-06T21:52:55.526Z,99.90
2017-09-06T21:55:23.080Z,99.90
2017-09-06T21:57:50.602Z,99.90
2017-09-06T22:00:18.154Z,99.90
2017-09-06T22:02:45.656Z,99.90
2017-09-06T22:05:13.160Z,99.90
2017-09-06T22:07:40.710Z,99.90
2017-09-06T22:10:08.230Z,99.90
2017-09-06T22:12:35.760Z,99.90
2017-09-06T22:15:03.268Z,99.90
2017-09-06T22:17:30.813Z,99.90
2017-09-06T22:19:58.320Z,99.90
2017-09-06T22:22:25.853Z,99.90
2017-09-06T22:24:53.351Z,99.90
2017-09-06T22:27:21.648Z,99.50
2017-09-06T22:29:49.152Z,99.50
2017-09-06T22:32:16.739Z,99.50
2017-09-06T22:34:44.274Z,99.40
2017-09-06T22:37:11.794Z,99.10
2017-09-06T22:39:39.334Z,98.50
2017-09-06T22:42:06.849Z,98.60
2017-09-06T22:44:34.386Z,99.00
2017-09-06T22:47:01.900Z,98.80
2017-09-06T22:49:29.443Z,98.70
2017-09-06T22:51:56.967Z,98.20
2017-09-06T22:54:24.504Z,98.40
2017-09-06T22:56:52.000Z,98.30
2017-09-06T22:59:19.522Z,98.00
2017-09-06T23:01:47.047Z,98.30
2017-09-06T23:04:14.574Z,97.90
2017-09-06T23:06:42.122Z,98.30
2017-09-06T23:09:09.657Z,98.00
2017-09-06T23:11:37.177Z,98.00
2017-09-06T23:14:05.468Z,98.00
2017-09-06T23:16:32.972Z,98.00
2017-09-06T23:19:00.496Z,97.90
2017-09-06T23:21:28.060Z,97.90
2017-09-06T23:23:55.597Z,98.40
2017-09-06T23:26:23.123Z,98.60
2017-09-06T23:28:50.656Z,97.90
2017-09-06T23:31:18.174Z,97.90
2017-09-06T23:33:45.858Z,98.00
2017-09-06T23:36:13.360Z,97.70
2017-09-06T23:38:40.978Z,97.30
2017-09-06T23:41:08.531Z,97.70
2017-09-06T23:43:36.032Z,97.30
2017-09-06T23:46:03.654Z,97.30
2017-09-06T23:48:31.194Z,97.30
2017-09-06T23:50:59.461Z,97.60
2017-09-06T23:53:27.014Z,97.60
2017-09-06T23:55:54.512Z,97.60
2017-09-06T23:58:22.012Z,97.50
